Time;durP1;ratioP1;P1;durP2;ratioP2;P2;SDS_P1;SDS_P2;PMS_P1;PMS_P2;Temp;Humidity;BMP_temperature;BMP_pressure;BME280_temperature;BME280_humidity;BME280_pressure;Samples;Min_cycle;Max_cycle;Signal;HPM_P1;HPM_P2
2022/05/19 00:02:01;;;;;;;0.00;0.00;;;17.20;1.00;226.50;231333.00;;;;5071959;28;20193;-70
2022/05/19 00:04:32;;;;;;;0.00;0.00;;;17.10;1.00;226.50;231333.00;;;;5067157;28;20200;-70
2022/05/19 00:07:01;;;;;;;0.00;0.00;;;17.10;1.00;226.50;231333.00;;;;5059462;28;20217;-70
2022/05/19 00:09:29;;;;;;;0.00;0.00;;;17.10;1.00;226.50;231333.00;;;;5071374;28;20278;-70
2022/05/19 00:12:02;;;;;;;0.00;0.00;;;17.10;1.00;226.50;231333.00;;;;5071459;28;20190;-70
2022/05/19 00:14:31;;;;;;;0.00;0.00;;;17.10;1.00;226.50;231333.00;;;;5071391;28;20662;-70
2022/05/19 00:16:59;;;;;;;0.00;0.00;;;17.10;20.30;226.50;231333.00;;;;5070865;28;20767;-70
2022/05/19 00:19:29;;;;;;;0.00;0.00;;;17.00;99.90;226.50;231333.00;;;;5064108;28;20229;-70
2022/05/19 00:21:58;;;;;;;0.00;0.00;;;17.00;99.90;226.50;231333.00;;;;5069703;28;20205;-70
2022/05/19 00:24:28;;;;;;;0.00;0.00;;;17.00;99.90;226.50;231333.00;;;;5059915;28;20208;-70
2022/05/19 00:26:58;;;;;;;0.00;0.00;;;17.00;99.90;226.50;231333.00;;;;5070609;28;20605;-70
2022/05/19 00:29:28;;;;;;;0.00;0.00;;;16.90;99.90;226.50;231333.00;;;;5069549;28;20638;-70
2022/05/19 00:31:57;;;;;;;0.00;0.00;;;16.90;1.00;226.50;231333.00;;;;5053906;28;20556;-70
2022/05/19 00:34:26;;;;;;;0.00;0.00;;;16.90;1.00;226.50;231333.00;;;;5057029;28;20663;-71
2022/05/19 00:37:01;;;;;;;0.00;0.00;;;16.90;1.00;226.50;231333.00;;;;5050922;28;20272;-72
2022/05/19 00:39:33;;;;;;;0.00;0.00;;;16.90;1.00;226.50;231333.00;;;;5071009;28;20570;-72
2022/05/19 00:44:48;;;;;;;0.10;0.10;;;16.80;1.00;226.50;231333.00;;;;5071112;28;20546;-72
2022/05/19 00:47:24;;;;;;;0.00;0.00;;;16.80;1.00;226.50;231333.00;;;;5071109;28;20198;-72
2022/05/19 00:49:54;;;;;;;0.00;0.00;;;16.80;1.00;226.50;231333.00;;;;5074838;28;20243;-71
2022/05/19 00:52:32;;;;;;;0.00;0.00;;;16.70;1.00;226.50;231333.00;;;;5074079;28;20722;-72
2022/05/19 00:55:10;;;;;;;0.00;0.00;;;16.70;1.00;226.50;231333.00;;;;5063024;28;20202;-71
2022/05/19 00:57:44;;;;;;;0.10;0.10;;;16.60;1.00;226.50;231333.00;;;;5072991;28;20224;-72
2022/05/19 01:00:19;;;;;;;0.00;0.00;;;16.60;95.60;226.50;231333.00;;;;5074589;28;20756;-72
2022/05/19 01:02:53;;;;;;;0.00;0.00;;;16.60;99.90;226.50;231333.00;;;;5063396;28;20568;-72
2022/05/19 01:05:31;;;;;;;0.00;0.00;;;16.60;96.00;226.50;231333.00;;;;5074173;28;20238;-72
2022/05/19 01:08:12;;;;;;;0.00;0.00;;;16.60;99.90;226.50;231333.00;;;;5073518;28;20201;-72
2022/05/19 01:10:41;;;;;;;0.05;0.05;;;16.60;99.90;226.50;231333.00;;;;5073816;28;20218;-72
2022/05/19 01:13:12;;;;;;;0.10;0.10;;;16.60;99.90;226.50;231333.00;;;;5073653;28;20224;-72
2022/05/19 01:15:45;;;;;;;0.10;0.10;;;16.50;99.90;226.50;231333.00;;;;5073329;28;20670;-72
2022/05/19 01:18:16;;;;;;;0.00;0.00;;;16.50;99.90;226.50;231333.00;;;;5073664;28;20217;-71
2022/05/19 01:20:48;;;;;;;0.10;0.10;;;16.50;99.90;226.50;231333.00;;;;5073649;28;20259;-72
2022/05/19 01:23:30;;;;;;;0.00;0.00;;;16.50;99.90;226.50;231333.00;;;;5073870;28;20201;-71
2022/05/19 01:26:15;;;;;;;0.00;0.00;;;16.50;99.90;226.50;231333.00;;;;5073635;28;20198;-72
2022/05/19 01:28:45;;;;;;;0.00;0.00;;;16.40;99.90;226.50;231333.00;;;;5073886;28;20198;-72
2022/05/19 01:31:33;;;;;;;0.00;0.00;;;16.40;99.90;226.50;231333.00;;;;5073500;28;20198;-72
2022/05/19 01:34:04;;;;;;;0.10;0.10;;;16.40;63.30;226.50;231333.00;;;;5073438;28;20228;-72
2022/05/19 01:36:33;;;;;;;0.10;0.10;;;16.40;99.90;226.50;231333.00;;;;5053550;28;20218;-72
2022/05/19 01:39:07;;;;;;;0.00;0.00;;;16.40;99.90;226.50;231333.00;;;;5054047;28;20297;-72
2022/05/19 01:41:56;;;;;;;0.00;0.00;;;16.40;6.80;226.50;231333.00;;;;5065728;28;20236;-72
2022/05/19 01:44:49;;;;;;;0.00;0.00;;;16.40;99.90;226.50;231333.00;;;;5068675;28;20538;-72
2022/05/19 01:47:31;;;;;;;0.00;0.00;;;16.40;1.00;226.50;231333.00;;;;5058476;28;20258;-72
2022/05/19 01:50:08;;;;;;;0.00;0.00;;;16.40;1.00;226.50;231333.00;;;;5073502;28;20279;-72
2022/05/19 01:52:46;;;;;;;0.00;0.00;;;16.40;10.10;226.50;231333.00;;;;5073516;28;20197;-72
2022/05/19 01:55:24;;;;;;;0.10;0.10;;;16.30;1.00;226.50;231333.00;;;;5073860;28;20264;-72
2022/05/19 01:58:01;;;;;;;0.10;0.10;;;16.30;30.00;226.50;231333.00;;;;5072571;28;20616;-72
2022/05/19 02:00:32;;;;;;;0.00;0.00;;;16.20;69.70;226.50;231333.00;;;;5073138;28;20759;-70
2022/05/19 02:03:13;;;;;;;0.00;0.00;;;16.20;99.90;226.50;231333.00;;;;5074030;28;20202;-69
2022/05/19 02:05:49;;;;;;;0.00;0.00;;;16.20;99.90;226.50;231333.00;;;;5073560;28;20670;-71
2022/05/19 02:08:24;;;;;;;0.00;0.00;;;16.10;24.10;226.50;231333.00;;;;5074864;28;20201;-70
2022/05/19 02:11:00;;;;;;;0.00;0.00;;;16.00;99.90;226.50;231333.00;;;;5073778;28;20263;-70
2022/05/19 02:13:32;;;;;;;0.00;0.00;;;16.00;99.90;226.50;231333.00;;;;5073946;28;20197;-70
2022/05/19 02:16:06;;;;;;;0.00;0.00;;;16.00;99.90;226.50;231333.00;;;;5073650;28;20197;-69
2022/05/19 02:18:35;;;;;;;0.00;0.00;;;16.00;99.90;226.50;231333.00;;;;5074032;28;20560;-70
2022/05/19 02:21:05;;;;;;;0.00;0.00;;;16.00;1.00;226.50;231333.00;;;;5073057;28;20193;-69
2022/05/19 02:23:36;;;;;;;0.00;0.00;;;15.90;99.90;226.50;231333.00;;;;5073484;28;20194;-69
2022/05/19 02:26:05;;;;;;;0.10;0.10;;;15.90;99.90;226.50;231333.00;;;;5071947;28;20244;-71
2022/05/19 02:28:40;;;;;;;0.10;0.10;;;15.90;99.90;226.50;231333.00;;;;5073245;28;20197;-71
2022/05/19 02:31:10;;;;;;;0.08;0.08;;;15.90;99.90;226.50;231333.00;;;;5072440;28;20220;-70
2022/05/19 02:33:39;;;;;;;0.00;0.00;;;15.90;99.90;226.50;231333.00;;;;5072596;28;20280;-69
2022/05/19 02:36:10;;;;;;;0.10;0.10;;;15.90;99.90;226.50;231333.00;;;;5072036;28;20190;-70
2022/05/19 02:38:40;;;;;;;0.00;0.00;;;16.00;99.90;226.50;231333.00;;;;5072660;28;20236;-69
2022/05/19 02:41:09;;;;;;;0.10;0.10;;;15.90;99.90;226.50;231333.00;;;;5072716;28;20247;-70
2022/05/19 02:43:37;;;;;;;0.10;0.10;;;15.90;99.90;226.50;231333.00;;;;5072817;28;20551;-70
2022/05/19 02:46:06;;;;;;;0.03;0.03;;;15.80;95.70;226.50;231333.00;;;;5071476;28;20189;-72
2022/05/19 02:48:36;;;;;;;0.00;0.00;;;15.80;1.00;226.50;231333.00;;;;5072509;28;20592;-71
2022/05/19 02:51:05;;;;;;;0.00;0.00;;;15.80;6.90;226.50;231333.00;;;;5072303;28;20334;-71
2022/05/19 02:53:34;;;;;;;0.00;0.00;;;15.70;61.40;226.50;231333.00;;;;5072645;28;20193;-69
2022/05/19 02:56:03;;;;;;;0.00;0.00;;;15.80;25.30;226.50;231333.00;;;;5071647;28;20198;-68
2022/05/19 02:58:32;;;;;;;0.00;0.00;;;15.70;1.00;226.50;231333.00;;;;5072517;28;20767;-68
2022/05/19 03:01:00;;;;;;;0.10;0.10;;;15.70;1.00;226.50;231333.00;;;;5072284;28;20247;-69
2022/05/19 03:03:29;;;;;;;0.08;0.08;;;15.70;42.40;226.50;231333.00;;;;5071688;28;20194;-70
2022/05/19 03:06:00;;;;;;;0.00;0.00;;;15.70;27.70;226.50;231333.00;;;;5065408;28;20551;-68
2022/05/19 03:08:29;;;;;;;0.00;0.00;;;15.70;53.40;226.50;231333.00;;;;5070614;28;20388;-68
2022/05/19 03:10:57;;;;;;;0.00;0.00;;;15.60;64.30;226.50;231333.00;;;;5070662;28;20209;-68
2022/05/19 03:13:26;;;;;;;0.00;0.00;;;15.60;87.30;226.50;231333.00;;;;5072294;28;20193;-68
2022/05/19 03:15:54;;;;;;;0.10;0.10;;;15.60;71.00;226.50;231333.00;;;;5062260;28;20665;-68
2022/05/19 03:18:23;;;;;;;0.00;0.00;;;15.60;99.90;226.50;231333.00;;;;5071510;28;20225;-68
2022/05/19 03:20:52;;;;;;;0.00;0.00;;;15.60;99.90;226.50;231333.00;;;;5070098;28;20209;-69
2022/05/19 03:23:22;;;;;;;0.10;0.10;;;15.50;99.90;226.50;231333.00;;;;5072278;28;20208;-70
2022/05/19 03:25:51;;;;;;;0.10;0.10;;;15.50;99.90;226.50;231333.00;;;;5071131;28;20194;-68
2022/05/19 03:28:20;;;;;;;0.00;0.00;;;15.50;1.00;226.50;231333.00;;;;5070880;28;20207;-67
2022/05/19 03:30:48;;;;;;;0.10;0.10;;;15.50;1.00;226.50;231333.00;;;;5071512;28;20209;-67
2022/05/19 03:33:17;;;;;;;0.10;0.10;;;15.40;1.00;226.50;231333.00;;;;5071559;28;20243;-70
2022/05/19 03:35:46;;;;;;;0.10;0.10;;;15.50;1.00;226.50;231333.00;;;;5070586;28;20244;-67
2022/05/19 03:38:14;;;;;;;0.00;0.00;;;15.40;1.00;226.50;231333.00;;;;5070600;28;20559;-68
2022/05/19 03:40:44;;;;;;;0.10;0.10;;;15.40;1.00;226.50;231333.00;;;;5071044;28;20209;-71
2022/05/19 03:43:12;;;;;;;0.10;0.10;;;15.40;1.00;226.50;231333.00;;;;5070933;28;20194;-68
2022/05/19 03:45:44;;;;;;;0.00;0.00;;;15.40;99.90;226.50;231333.00;;;;5070610;28;20192;-69
2022/05/19 03:48:14;;;;;;;0.00;0.00;;;15.30;99.90;226.50;231333.00;;;;5069534;28;20204;-67
2022/05/19 03:50:46;;;;;;;0.10;0.10;;;15.40;99.90;226.50;231333.00;;;;5070854;28;20844;-67
2022/05/19 03:53:15;;;;;;;0.00;0.00;;;15.40;88.90;226.50;231333.00;;;;5071413;28;20182;-67
2022/05/19 03:55:45;;;;;;;0.00;0.00;;;15.30;99.90;226.50;231333.00;;;;5070064;28;20282;-68
2022/05/19 03:58:14;;;;;;;0.10;0.10;;;15.30;99.90;226.50;231333.00;;;;5070706;28;20213;-68
2022/05/19 04:00:43;;;;;;;0.10;0.10;;;15.30;99.90;226.50;231333.00;;;;5071181;28;20213;-68
2022/05/19 04:03:12;;;;;;;0.10;0.10;;;15.30;1.00;226.50;231333.00;;;;5071600;28;20190;-68
2022/05/19 04:05:41;;;;;;;0.00;0.00;;;15.30;15.70;226.50;231333.00;;;;5069799;28;20280;-68
2022/05/19 04:08:09;;;;;;;0.10;0.10;;;15.30;1.00;226.50;231333.00;;;;5070161;28;20255;-68
2022/05/19 04:10:42;;;;;;;0.00;0.00;;;15.30;1.00;226.50;231333.00;;;;5069358;28;20279;-68
2022/05/19 04:13:13;;;;;;;0.00;0.00;;;15.30;1.00;226.50;231333.00;;;;5071086;28;20612;-68
2022/05/19 04:15:42;;;;;;;0.10;0.10;;;15.40;1.00;226.50;231333.00;;;;5070047;28;20597;-68
2022/05/19 04:18:11;;;;;;;0.00;0.00;;;15.30;1.00;226.50;231333.00;;;;5071023;28;20301;-68
2022/05/19 04:20:39;;;;;;;0.05;0.05;;;15.40;1.00;226.50;231333.00;;;;5071443;28;20228;-68
2022/05/19 04:23:08;;;;;;;0.00;0.00;;;15.30;1.00;226.50;231333.00;;;;5066240;28;20238;-70
2022/05/19 04:25:37;;;;;;;0.00;0.00;;;15.30;1.00;226.50;231333.00;;;;5072399;28;20201;-67
2022/05/19 04:28:08;;;;;;;0.05;0.05;;;15.20;1.00;226.50;231333.00;;;;5075222;28;20209;-69
2022/05/19 04:30:39;;;;;;;0.00;0.00;;;15.20;1.00;226.50;231333.00;;;;5075438;28;20221;-69
2022/05/19 04:33:09;;;;;;;0.10;0.10;;;15.20;1.00;226.50;231333.00;;;;5074953;28;20196;-69
2022/05/19 04:35:39;;;;;;;0.10;0.10;;;15.20;1.00;226.50;231333.00;;;;5074765;28;20259;-67
2022/05/19 04:38:10;;;;;;;0.00;0.00;;;15.20;1.00;226.50;231333.00;;;;5074394;28;20682;-69
2022/05/19 04:40:41;;;;;;;0.08;0.08;;;15.20;1.00;226.50;231333.00;;;;5074439;28;20259;-69
2022/05/19 04:43:19;;;;;;;0.10;0.10;;;15.20;1.00;226.50;231333.00;;;;5066017;28;20211;-69
2022/05/19 04:45:50;;;;;;;0.10;0.10;;;15.20;1.00;226.50;231333.00;;;;5067628;28;20630;-68
2022/05/19 04:48:20;;;;;;;0.08;0.08;;;15.20;1.00;226.50;231333.00;;;;5068029;28;20205;-69
2022/05/19 04:50:52;;;;;;;0.10;0.10;;;15.20;1.00;226.50;231333.00;;;;5066484;28;20279;-68
2022/05/19 04:53:23;;;;;;;0.00;0.00;;;15.40;1.00;226.50;231333.00;;;;5065129;28;20206;-69
2022/05/19 04:55:54;;;;;;;0.00;0.00;;;15.30;1.00;226.50;231333.00;;;;5073551;28;20201;-69
2022/05/19 04:58:23;;;;;;;0.10;0.10;;;15.30;1.00;226.50;231333.00;;;;5073964;28;20233;-68
2022/05/19 05:00:54;;;;;;;0.10;0.10;;;15.40;1.00;226.50;231333.00;;;;5060889;28;20719;-70
2022/05/19 05:03:23;;;;;;;0.08;0.08;;;15.50;1.00;226.50;231333.00;;;;5070733;28;20255;-68
2022/05/19 05:05:52;;;;;;;0.00;0.00;;;15.50;99.90;226.50;231333.00;;;;5070347;28;20204;-69
2022/05/19 05:08:21;;;;;;;0.05;0.05;;;15.50;1.00;226.50;231333.00;;;;5069343;28;20209;-68
2022/05/19 05:10:50;;;;;;;0.00;0.00;;;15.70;1.00;226.50;231333.00;;;;5072681;28;20580;-69
2022/05/19 05:13:19;;;;;;;0.00;0.00;;;15.60;1.00;226.50;231333.00;;;;5073663;28;20190;-69
2022/05/19 05:15:52;;;;;;;0.10;0.10;;;15.70;1.00;226.50;231333.00;;;;5073331;28;20562;-70
2022/05/19 05:18:21;;;;;;;0.10;0.10;;;15.70;1.00;226.50;231333.00;;;;5061371;28;20197;-70
2022/05/19 05:20:50;;;;;;;0.00;0.00;;;15.80;1.00;226.50;231333.00;;;;5064963;28;20687;-69
2022/05/19 05:23:18;;;;;;;0.00;0.00;;;15.90;1.00;226.50;231333.00;;;;5072914;28;20198;-69
2022/05/19 05:25:47;;;;;;;0.10;0.10;;;15.90;1.00;226.50;231333.00;;;;5059569;28;20197;-68
2022/05/19 05:28:15;;;;;;;0.10;0.10;;;16.00;73.30;226.50;231333.00;;;;5070353;28;20194;-69
2022/05/19 05:30:44;;;;;;;0.10;0.10;;;16.10;1.00;226.50;231333.00;;;;5063021;28;20570;-69
2022/05/19 05:33:14;;;;;;;0.00;0.00;;;16.20;1.00;226.50;231333.00;;;;5065084;28;20621;-70
2022/05/19 05:35:43;;;;;;;0.03;0.03;;;16.30;99.90;226.50;231333.00;;;;5070257;28;20225;-70
2022/05/19 05:38:11;;;;;;;0.00;0.00;;;16.50;99.90;226.50;231333.00;;;;5075559;28;20194;-70
2022/05/19 05:40:40;;;;;;;0.00;0.00;;;16.60;1.00;226.50;231333.00;;;;5069500;28;20218;-69
2022/05/19 05:43:12;;;;;;;0.00;0.00;;;16.70;1.00;226.50;231333.00;;;;5075643;28;20601;-70
2022/05/19 05:45:41;;;;;;;0.00;0.00;;;16.80;99.90;226.50;231333.00;;;;5076654;28;20307;-70
2022/05/19 05:48:11;;;;;;;0.10;0.10;;;17.00;1.00;226.50;231333.00;;;;5073630;28;20202;-69
2022/05/19 05:50:41;;;;;;;0.00;0.00;;;17.00;1.00;226.50;231333.00;;;;5067361;28;20697;-71
2022/05/19 05:53:10;;;;;;;0.00;0.00;;;17.20;1.00;226.50;231333.00;;;;5064807;28;20198;-71
2022/05/19 05:55:40;;;;;;;0.00;0.00;;;17.30;1.00;226.50;231333.00;;;;5071780;28;20259;-71
2022/05/19 05:58:11;;;;;;;0.00;0.00;;;17.40;1.00;226.50;231333.00;;;;5077372;28;20202;-71
2022/05/19 06:00:42;;;;;;;0.00;0.00;;;17.50;99.90;226.50;231333.00;;;;5072580;28;21844;-69
2022/05/19 06:03:11;;;;;;;0.00;0.00;;;17.60;99.90;226.50;231333.00;;;;5073212;28;20194;-69
2022/05/19 06:05:42;;;;;;;0.00;0.00;;;17.70;99.90;226.50;231333.00;;;;5070296;28;20190;-69
2022/05/19 06:08:10;;;;;;;0.00;0.00;;;17.80;99.90;226.50;231333.00;;;;5077063;28;20201;-69
2022/05/19 06:10:39;;;;;;;0.00;0.00;;;17.90;99.90;226.50;231333.00;;;;5063081;28;20217;-69
2022/05/19 06:13:08;;;;;;;0.00;0.00;;;18.00;99.90;226.50;231333.00;;;;5074113;28;20201;-69
2022/05/19 06:15:37;;;;;;;0.00;0.00;;;18.10;99.90;226.50;231333.00;;;;5075314;28;20262;-71
2022/05/19 06:18:06;;;;;;;0.00;0.00;;;18.20;99.90;226.50;231333.00;;;;5074179;28;20220;-70
2022/05/19 06:20:36;;;;;;;0.00;0.00;;;18.30;99.90;226.50;231333.00;;;;5065440;28;20274;-70
2022/05/19 06:23:07;;;;;;;0.00;0.00;;;18.30;99.90;226.50;231333.00;;;;5054953;28;20198;-70
2022/05/19 06:25:40;;;;;;;0.00;0.00;;;18.40;99.90;226.50;231333.00;;;;5058476;28;20233;-70
2022/05/19 06:28:08;;;;;;;0.10;0.10;;;18.50;99.90;226.50;231333.00;;;;5058485;28;20202;-69
2022/05/19 06:30:37;;;;;;;0.00;0.00;;;18.60;99.90;226.50;231333.00;;;;5070441;28;20247;-70
2022/05/19 06:33:06;;;;;;;0.00;0.00;;;18.60;53.20;226.50;231333.00;;;;5072636;28;20258;-70
2022/05/19 06:35:36;;;;;;;0.00;0.00;;;18.70;58.00;226.50;231333.00;;;;5072394;28;20602;-69
2022/05/19 06:38:07;;;;;;;0.00;0.00;;;18.80;34.10;226.50;231333.00;;;;5072456;28;20893;-70
2022/05/19 06:40:36;;;;;;;0.00;0.00;;;18.80;29.10;226.50;231333.00;;;;5061913;28;20267;-69
2022/05/19 06:43:09;;;;;;;0.00;0.00;;;19.00;16.50;226.50;231333.00;;;;5072491;28;20189;-70
2022/05/19 06:45:38;;;;;;;0.00;0.00;;;19.10;11.90;226.50;231333.00;;;;5071398;28;20663;-71
2022/05/19 06:48:08;;;;;;;0.00;0.00;;;19.20;13.60;226.50;231333.00;;;;5069819;28;20247;-69
2022/05/19 06:50:37;;;;;;;0.00;0.00;;;19.30;10.10;226.50;231333.00;;;;5061329;28;20292;-70
2022/05/19 06:53:07;;;;;;;0.00;0.00;;;19.30;1.00;226.50;231333.00;;;;5072400;28;20291;-70
2022/05/19 06:55:38;;;;;;;0.00;0.00;;;19.40;4.20;226.50;231333.00;;;;5072580;28;20610;-72
2022/05/19 06:58:07;;;;;;;0.00;0.00;;;19.50;1.00;226.50;231333.00;;;;5072448;28;20202;-70
2022/05/19 07:00:35;;;;;;;0.00;0.00;;;19.60;1.00;226.50;231333.00;;;;5072016;28;20237;-69
2022/05/19 07:03:04;;;;;;;0.00;0.00;;;19.70;1.00;226.50;231333.00;;;;5072406;28;20198;-70
2022/05/19 07:05:36;;;;;;;0.00;0.00;;;19.90;1.00;226.50;231333.00;;;;5069684;28;20194;-70
2022/05/19 07:08:08;;;;;;;0.00;0.00;;;20.10;1.00;226.50;231333.00;;;;5088422;28;20212;-70
2022/05/19 07:10:37;;;;;;;0.00;0.00;;;20.20;1.00;226.50;231333.00;;;;5088519;28;20214;-69
2022/05/19 07:13:06;;;;;;;0.00;0.00;;;20.30;1.00;226.50;231333.00;;;;5088443;28;20257;-71
2022/05/19 07:15:36;;;;;;;0.00;0.00;;;20.40;1.00;226.50;231333.00;;;;5088885;28;20202;-69
2022/05/19 07:18:08;;;;;;;0.00;0.00;;;20.60;1.00;226.50;231333.00;;;;5089820;28;20190;-71
2022/05/19 07:20:44;;;;;;;0.00;0.00;;;20.70;1.00;226.50;231333.00;;;;5072104;28;20226;-71
2022/05/19 07:23:19;;;;;;;0.00;0.00;;;20.80;1.00;226.50;231333.00;;;;5080913;28;20216;-71
2022/05/19 07:25:49;;;;;;;0.00;0.00;;;21.00;1.00;226.50;231333.00;;;;5079294;28;20197;-70
2022/05/19 07:28:20;;;;;;;0.00;0.00;;;21.20;1.00;226.50;231333.00;;;;5079784;28;20650;-70
2022/05/19 07:30:49;;;;;;;0.00;0.00;;;21.30;1.00;226.50;231333.00;;;;5069374;28;20312;-70
2022/05/19 07:33:18;;;;;;;0.00;0.00;;;21.50;1.00;226.50;231333.00;;;;5060834;28;20251;-70
2022/05/19 07:35:50;;;;;;;0.00;0.00;;;21.50;1.00;226.50;231333.00;;;;5060788;28;20658;-70
2022/05/19 07:38:20;;;;;;;0.00;0.00;;;21.60;1.00;226.50;231333.00;;;;5073009;28;20186;-71
2022/05/19 07:40:54;;;;;;;0.00;0.00;;;21.80;1.00;226.50;231333.00;;;;5062226;28;20220;-71
2022/05/19 07:43:38;;;;;;;0.00;0.00;;;21.90;1.00;226.50;231333.00;;;;5052705;28;20202;-71
2022/05/19 07:46:08;;;;;;;0.00;0.00;;;22.10;1.00;226.50;231333.00;;;;5071067;28;20281;-71
2022/05/19 07:48:37;;;;;;;0.00;0.00;;;22.30;1.00;226.50;231333.00;;;;5073835;28;20202;-71
2022/05/19 07:51:07;;;;;;;0.00;0.00;;;22.40;1.00;226.50;231333.00;;;;5060360;28;20198;-71
2022/05/19 07:53:37;;;;;;;0.00;0.00;;;22.50;1.00;226.50;231333.00;;;;5054197;28;20190;-71
2022/05/19 07:56:06;;;;;;;0.00;0.00;;;22.60;1.00;226.50;231333.00;;;;5070818;28;20531;-70
2022/05/19 07:58:35;;;;;;;0.00;0.00;;;22.70;1.00;226.50;231333.00;;;;5072569;28;20197;-71
2022/05/19 08:01:04;;;;;;;0.00;0.00;;;22.80;1.00;226.50;231333.00;;;;5066234;28;20213;-70
2022/05/19 08:03:32;;;;;;;0.00;0.00;;;22.90;1.00;226.50;231333.00;;;;5073019;28;20197;-70
2022/05/19 08:06:04;;;;;;;0.00;0.00;;;23.10;1.00;226.50;231333.00;;;;5072570;28;20271;-70
2022/05/19 08:08:32;;;;;;;0.00;0.00;;;23.20;1.00;226.50;231333.00;;;;5071877;28;20205;-70
2022/05/19 08:11:02;;;;;;;0.00;0.00;;;23.40;1.00;226.50;231333.00;;;;5071685;28;20779;-70
2022/05/19 08:16:17;;;;;;;0.00;0.00;;;23.60;1.00;226.50;231333.00;;;;5075184;28;20202;-70
2022/05/19 08:18:45;;;;;;;0.00;0.00;;;23.60;1.00;226.50;231333.00;;;;5073154;28;20209;-69
2022/05/19 08:21:15;;;;;;;0.00;0.00;;;23.50;1.00;226.50;231333.00;;;;5065888;28;20234;-70
2022/05/19 08:23:47;;;;;;;0.00;0.00;;;23.70;1.00;226.50;231333.00;;;;5058618;28;20197;-72
2022/05/19 08:26:17;;;;;;;0.00;0.00;;;23.50;1.00;226.50;231333.00;;;;5068779;28;20193;-69
2022/05/19 08:28:49;;;;;;;0.00;0.00;;;23.60;1.00;226.50;231333.00;;;;5067555;28;20209;-71
2022/05/19 08:31:20;;;;;;;0.00;0.00;;;23.70;1.00;226.50;231333.00;;;;5070766;28;20198;-70
2022/05/19 08:33:52;;;;;;;0.00;0.00;;;24.00;1.00;226.50;231333.00;;;;5065837;28;20190;-70
2022/05/19 08:36:24;;;;;;;0.00;0.00;;;24.00;1.00;226.50;231333.00;;;;5070456;28;20278;-69
2022/05/19 08:38:53;;;;;;;0.00;0.00;;;24.10;1.00;226.50;231333.00;;;;5072332;28;20190;-69
2022/05/19 08:41:32;;;;;;;0.00;0.00;;;24.20;1.00;226.50;231333.00;;;;5069316;28;20225;-69
2022/05/19 08:44:08;;;;;;;0.00;0.00;;;24.20;1.00;226.50;231333.00;;;;5071731;28;20698;-70
2022/05/19 08:46:42;;;;;;;0.00;0.00;;;24.40;1.00;226.50;231333.00;;;;5062154;28;20193;-70
2022/05/19 08:49:20;;;;;;;0.00;0.00;;;24.50;1.00;226.50;231333.00;;;;5060697;28;21009;-70
2022/05/19 08:51:57;;;;;;;0.00;0.00;;;24.60;1.00;226.50;231333.00;;;;5070755;28;20667;-69
2022/05/19 08:54:26;;;;;;;0.00;0.00;;;24.90;1.00;226.50;231333.00;;;;5070297;28;20251;-69
2022/05/19 08:57:06;;;;;;;0.00;0.00;;;24.80;1.00;226.50;231333.00;;;;5066457;28;20478;-70
2022/05/19 08:59:52;;;;;;;0.00;0.00;;;24.80;1.00;226.50;231333.00;;;;5070958;28;20254;-69
2022/05/19 09:02:32;;;;;;;0.00;0.00;;;24.80;1.00;226.50;231333.00;;;;5069659;28;20222;-70
2022/05/19 09:05:17;;;;;;;0.00;0.00;;;25.10;1.00;226.50;231333.00;;;;5053874;28;20243;-70
2022/05/19 09:08:01;;;;;;;0.00;0.00;;;25.40;1.00;226.50;231333.00;;;;5051089;28;20687;-69
2022/05/19 09:10:52;;;;;;;0.00;0.00;;;25.60;1.00;226.50;231333.00;;;;5067089;28;20592;-70
2022/05/19 09:13:35;;;;;;;0.00;0.00;;;25.70;1.00;226.50;231333.00;;;;5054371;28;20256;-70
2022/05/19 09:16:12;;;;;;;0.00;0.00;;;25.80;1.00;226.50;231333.00;;;;5070330;28;20405;-69
2022/05/19 09:18:47;;;;;;;0.00;0.00;;;25.70;1.00;226.50;231333.00;;;;5054710;28;20190;-70
2022/05/19 09:21:15;;;;;;;0.00;0.00;;;26.00;1.00;226.50;231333.00;;;;5064762;28;20613;-69
2022/05/19 09:23:43;;;;;;;0.00;0.00;;;25.90;1.00;226.50;231333.00;;;;5074490;28;20198;-70
2022/05/19 09:26:53;;;;;;;0.00;0.00;;;26.10;1.00;226.50;231333.00;;;;5073977;28;20190;-69
2022/05/19 09:29:29;;;;;;;0.00;0.00;;;26.10;1.00;226.50;231333.00;;;;5072771;28;20300;-70
2022/05/19 09:32:13;;;;;;;0.00;0.00;;;25.90;1.00;226.50;231333.00;;;;5073655;28;20202;-70
2022/05/19 09:34:46;;;;;;;0.00;0.00;;;25.90;1.00;226.50;231333.00;;;;5073596;28;20196;-70
2022/05/19 09:37:19;;;;;;;0.00;0.00;;;26.20;1.00;226.50;231333.00;;;;5063187;28;20198;-69
2022/05/19 09:39:53;;;;;;;0.00;0.00;;;26.40;1.00;226.50;231333.00;;;;5075105;28;20224;-70
2022/05/19 09:42:33;;;;;;;0.00;0.00;;;26.50;1.00;226.50;231333.00;;;;5071947;28;20694;-69
2022/05/19 09:45:04;;;;;;;0.00;0.00;;;26.10;1.00;226.50;231333.00;;;;5060055;28;20375;-70
2022/05/19 09:47:36;;;;;;;0.00;0.00;;;26.40;1.00;226.50;231333.00;;;;5067228;28;20209;-69
2022/05/19 09:50:16;;;;;;;0.00;0.00;;;26.60;1.00;226.50;231333.00;;;;5060621;28;20233;-69
2022/05/19 09:52:46;;;;;;;0.00;0.00;;;26.70;1.00;226.50;231333.00;;;;5061409;28;20680;-69
2022/05/19 09:55:21;;;;;;;0.00;0.00;;;26.70;1.00;226.50;231333.00;;;;5067874;28;20247;-69
2022/05/19 09:57:58;;;;;;;0.00;0.00;;;26.90;1.00;226.50;231333.00;;;;5072084;28;20250;-69
2022/05/19 10:00:37;;;;;;;0.00;0.00;;;26.90;1.00;226.50;231333.00;;;;5075022;28;20637;-69
2022/05/19 10:03:13;;;;;;;0.00;0.00;;;27.10;1.00;226.50;231333.00;;;;5075456;28;20655;-69
2022/05/19 10:05:50;;;;;;;0.00;0.00;;;27.10;1.00;226.50;231333.00;;;;5065299;28;20193;-69
2022/05/19 10:08:24;;;;;;;0.00;0.00;;;27.20;1.00;226.50;231333.00;;;;5075822;28;20616;-69
2022/05/19 10:11:03;;;;;;;0.00;0.00;;;27.50;1.00;226.50;231333.00;;;;5073061;28;20248;-69
2022/05/19 10:13:38;;;;;;;0.00;0.00;;;27.70;1.00;226.50;231333.00;;;;5065219;28;20193;-69
2022/05/19 10:16:20;;;;;;;0.00;0.00;;;27.60;1.00;226.50;231333.00;;;;5066233;28;20201;-69
2022/05/19 10:19:10;;;;;;;0.00;0.00;;;27.50;1.00;226.50;231333.00;;;;5053639;28;20547;-69
2022/05/19 10:22:12;;;;;;;0.00;0.00;;;27.30;1.00;226.50;231333.00;;;;5074201;28;20224;-69
2022/05/19 10:25:03;;;;;;;0.00;0.00;;;27.50;1.00;226.50;231333.00;;;;5074169;28;20219;-68
2022/05/19 10:34:03;;;;;;;0.00;0.00;;;28.00;1.00;226.50;231333.00;;;;5053256;28;20256;-70
2022/05/19 10:36:44;;;;;;;0.00;0.00;;;28.10;1.00;226.50;231333.00;;;;5064733;28;20601;-70
2022/05/19 10:39:41;;;;;;;0.00;0.00;;;28.20;1.00;226.50;231333.00;;;;5072566;28;20213;-70
2022/05/19 10:42:25;;;;;;;0.00;0.00;;;28.20;1.00;226.50;231333.00;;;;5064727;28;20225;-70
2022/05/19 10:45:15;;;;;;;0.00;0.00;;;28.10;1.00;226.50;231333.00;;;;5060693;28;20671;-70
2022/05/19 10:48:24;;;;;;;0.00;0.00;;;28.20;1.00;226.50;231333.00;;;;5065834;28;20244;-70
2022/05/19 10:51:00;;;;;;;0.00;0.00;;;28.20;1.00;226.50;231333.00;;;;4980181;28;20231;-69
2022/05/19 10:54:07;;;;;;;0.00;0.00;;;28.20;1.00;226.50;231333.00;;;;5050856;28;20213;-69
2022/05/19 10:57:14;;;;;;;0.00;0.00;;;28.10;1.00;226.50;231333.00;;;;5066157;28;20655;-69
2022/05/19 11:00:12;;;;;;;0.00;0.00;;;28.20;1.00;226.50;231333.00;;;;5063353;28;20296;-69
2022/05/19 11:03:32;;;;;;;0.00;0.00;;;28.60;1.00;226.50;231333.00;;;;5064631;28;20298;-70
2022/05/19 11:06:37;;;;;;;0.00;0.00;;;29.00;1.00;226.50;231333.00;;;;5057488;28;20209;-70
2022/05/19 11:09:16;;;;;;;0.00;0.00;;;28.70;1.00;226.50;231333.00;;;;5063316;28;20222;-69
2022/05/19 11:12:06;;;;;;;0.00;0.00;;;28.80;1.00;226.50;231333.00;;;;5065594;28;20194;-69
2022/05/19 11:15:01;;;;;;;0.00;0.00;;;29.00;1.00;226.50;231333.00;;;;5063648;28;20532;-70
2022/05/19 11:17:44;;;;;;;0.00;0.00;;;29.10;1.00;226.50;231333.00;;;;5065626;28;20261;-70
2022/05/19 11:20:20;;;;;;;0.00;0.00;;;29.20;1.00;226.50;231333.00;;;;5064651;28;20216;-70
2022/05/19 11:22:56;;;;;;;0.00;0.00;;;29.50;1.00;226.50;231333.00;;;;5064368;28;20244;-70
2022/05/19 11:28:30;;;;;;;0.00;0.00;;;29.50;1.00;226.50;231333.00;;;;5062030;28;20277;-69